Aviation Digital Data Service (ADDS)

Output produced by METARs form (0103 UTC 26 October 2014)
found at http://aviationweather.gov/adds/metars/
 
KDEN 260030Z 2601/2706 08009KT P6SM SKC 
     FM260300 15008KT P6SM SKC 
     FM260500 20010KT P6SM FEW140 SCT250 
     FM261500 22012KT P6SM FEW120 SCT200 
     FM261900 27010KT P6SM SCT080 BKN150 
     FM262300 34007KT P6SM SCT080 BKN150